Time;durP1;ratioP1;P1;durP2;ratioP2;P2;SDS_P1;SDS_P2;PMS_P1;PMS_P2;Temp;Humidity;BMP_temperature;BMP_pressure;BME280_temperature;BME280_humidity;BME280_pressure;Samples;Min_cycle;Max_cycle;Signal;HPM_P1;HPM_P2
2022/03/22 00:02:17;;;;;;;29.37;18.37;;;13.50;56.90;;;;;;5079927;28;20460;-64
2022/03/22 00:04:44;;;;;;;19.83;17.73;;;13.30;57.00;;;;;;5080635;28;20939;-64
2022/03/22 00:07:11;;;;;;;22.60;16.87;;;13.30;57.40;;;;;;5079857;28;20502;-64
2022/03/22 00:09:39;;;;;;;18.43;16.27;;;13.20;57.60;;;;;;5080377;28;20480;-64
2022/03/22 00:12:07;;;;;;;18.23;16.47;;;13.10;57.80;;;;;;5080415;28;20473;-64
2022/03/22 00:14:34;;;;;;;21.57;17.57;;;13.00;58.20;;;;;;5080184;28;20451;-64
2022/03/22 00:17:03;;;;;;;17.90;16.03;;;13.00;58.50;;;;;;5080326;28;20480;-64
2022/03/22 00:19:30;;;;;;;18.50;16.40;;;12.90;58.70;;;;;;5079895;28;20974;-64
2022/03/22 00:21:57;;;;;;;16.70;15.10;;;12.90;58.80;;;;;;5080126;28;20480;-64
2022/03/22 00:24:23;;;;;;;20.17;17.23;;;12.90;58.90;;;;;;5080048;28;20547;-64
2022/03/22 00:26:51;;;;;;;18.77;16.77;;;12.90;59.00;;;;;;5079569;28;20448;-64
2022/03/22 00:29:18;;;;;;;18.93;16.93;;;12.80;59.00;;;;;;5079260;28;20484;-64
2022/03/22 00:31:45;;;;;;;18.10;16.20;;;12.80;59.00;;;;;;5079053;28;20464;-64
2022/03/22 00:34:13;;;;;;;20.03;17.33;;;12.70;59.10;;;;;;5079389;28;20445;-64
2022/03/22 00:36:40;;;;;;;18.10;16.17;;;12.70;59.20;;;;;;5079646;28;20509;-63
2022/03/22 00:39:07;;;;;;;19.00;15.80;;;12.70;60.10;;;;;;5079330;28;20444;-63
2022/03/22 00:41:33;;;;;;;20.97;17.70;;;12.70;59.50;;;;;;5079520;28;20468;-63
2022/03/22 00:44:01;;;;;;;19.00;16.80;;;12.70;59.60;;;;;;5078407;28;20448;-64
2022/03/22 00:46:28;;;;;;;22.53;18.57;;;12.70;60.50;;;;;;5079195;28;20453;-64
2022/03/22 00:48:55;;;;;;;20.07;16.70;;;12.60;59.80;;;;;;5078235;28;20480;-63
2022/03/22 00:51:23;;;;;;;19.27;17.20;;;12.60;59.80;;;;;;5077967;28;20469;-63
2022/03/22 00:53:51;;;;;;;24.50;18.63;;;12.60;59.80;;;;;;5078216;28;20441;-63
2022/03/22 00:56:18;;;;;;;24.80;18.43;;;12.60;59.90;;;;;;5079201;28;20947;-63
2022/03/22 00:58:45;;;;;;;20.53;18.00;;;12.60;60.00;;;;;;5078555;28;20948;-63
2022/03/22 01:01:13;;;;;;;27.57;17.63;;;12.60;60.20;;;;;;5078876;28;20471;-64
2022/03/22 01:03:40;;;;;;;21.10;18.40;;;12.60;60.30;;;;;;5079010;28;20441;-63
2022/03/22 01:06:08;;;;;;;26.27;20.17;;;12.60;60.40;;;;;;5078482;28;20456;-63
2022/03/22 01:08:35;;;;;;;20.80;16.70;;;12.50;60.30;;;;;;5078710;28;20815;-63
2022/03/22 01:11:02;;;;;;;22.77;18.93;;;12.50;60.30;;;;;;5079905;28;21000;-64
2022/03/22 01:13:29;;;;;;;22.53;19.10;;;12.50;60.30;;;;;;5080242;28;20452;-63
2022/03/22 01:15:57;;;;;;;24.70;20.63;;;12.50;60.30;;;;;;5080157;28;20452;-63
2022/03/22 01:18:25;;;;;;;21.93;19.20;;;12.40;60.20;;;;;;5078921;28;20817;-63
2022/03/22 01:20:52;;;;;;;20.87;17.77;;;12.40;60.30;;;;;;5079113;28;20980;-64
2022/03/22 01:23:20;;;;;;;26.23;19.77;;;12.40;60.40;;;;;;5078296;28;20533;-64
2022/03/22 01:25:48;;;;;;;22.60;18.60;;;12.40;60.60;;;;;;5078603;28;20502;-63
2022/03/22 01:28:15;;;;;;;24.73;19.53;;;12.40;60.60;;;;;;5077865;28;20453;-63
2022/03/22 01:30:42;;;;;;;23.53;18.60;;;12.30;60.60;;;;;;5078237;28;20489;-63
2022/03/22 01:33:11;;;;;;;24.53;19.80;;;12.30;60.50;;;;;;5077899;28;20832;-63
2022/03/22 01:35:40;;;;;;;22.27;19.17;;;12.30;60.50;;;;;;5076937;28;20451;-63
2022/03/22 01:38:07;;;;;;;29.10;20.10;;;12.30;60.60;;;;;;5077272;28;20444;-63
2022/03/22 01:40:35;;;;;;;26.20;18.87;;;12.30;60.70;;;;;;5077204;28;20536;-63
2022/03/22 01:43:02;;;;;;;22.50;18.47;;;12.30;60.60;;;;;;5077289;28;21004;-64
2022/03/22 01:45:30;;;;;;;23.73;19.00;;;12.20;60.60;;;;;;5077061;28;20444;-64
2022/03/22 01:47:59;;;;;;;28.13;19.93;;;12.20;60.50;;;;;;5085694;28;20453;-63
2022/03/22 01:50:26;;;;;;;23.47;19.00;;;12.20;60.50;;;;;;5089273;28;20472;-63
2022/03/22 01:52:56;;;;;;;26.93;19.90;;;12.20;60.40;;;;;;5088048;28;20459;-63
2022/03/22 01:55:25;;;;;;;23.30;19.30;;;12.20;60.40;;;;;;5080399;28;20812;-64
2022/03/22 01:57:51;;;;;;;23.20;19.97;;;12.10;60.40;;;;;;5079652;28;20452;-63
2022/03/22 02:00:20;;;;;;;23.10;19.43;;;12.10;60.50;;;;;;5078786;28;20440;-64
2022/03/22 02:08:25;;;;;;;27.33;20.33;;;12.00;60.30;;;;;;5077040;28;20408;-63
2022/03/22 02:10:52;;;;;;;26.77;19.90;;;12.00;60.30;;;;;;5077956;28;20496;-63
2022/03/22 02:13:19;;;;;;;20.77;18.03;;;12.00;60.20;;;;;;5078474;28;20452;-64
2022/03/22 02:15:49;;;;;;;22.47;20.03;;;12.00;60.20;;;;;;5077683;28;20966;-63
2022/03/22 02:18:17;;;;;;;23.33;19.50;;;11.90;60.00;;;;;;5077561;28;20514;-62
2022/03/22 02:20:45;;;;;;;24.00;19.70;;;11.90;59.90;;;;;;5077396;28;20460;-62
2022/03/22 02:23:19;;;;;;;24.83;19.60;;;11.90;60.00;;;;;;5077973;28;20506;-63
2022/03/22 02:25:49;;;;;;;24.30;20.70;;;11.90;60.20;;;;;;5077758;28;20445;-63
2022/03/22 02:28:16;;;;;;;26.40;19.67;;;11.80;60.30;;;;;;5076859;28;20971;-63
2022/03/22 02:30:45;;;;;;;23.63;20.10;;;11.80;60.60;;;;;;5077623;28;20495;-64
2022/03/22 02:33:12;;;;;;;22.90;18.73;;;11.80;60.50;;;;;;5077869;28;20440;-63
2022/03/22 02:35:40;;;;;;;21.93;18.63;;;11.80;60.20;;;;;;5076964;28;20460;-63
2022/03/22 02:38:08;;;;;;;27.67;20.10;;;11.80;60.10;;;;;;5077030;28;20463;-63
2022/03/22 02:40:35;;;;;;;23.40;19.57;;;11.80;60.20;;;;;;5076954;28;20440;-63
2022/03/22 02:43:03;;;;;;;22.17;19.10;;;11.70;60.00;;;;;;5077490;28;20516;-63
2022/03/22 02:45:30;;;;;;;21.30;18.90;;;11.70;60.20;;;;;;5078951;28;20452;-63
2022/03/22 02:47:58;;;;;;;22.03;19.50;;;11.70;60.30;;;;;;5077886;28;20449;-63
2022/03/22 02:50:25;;;;;;;22.10;18.90;;;11.70;60.10;;;;;;5076438;28;20485;-63
2022/03/22 02:52:52;;;;;;;24.30;18.60;;;11.70;59.90;;;;;;5076662;28;20455;-63
2022/03/22 02:55:20;;;;;;;21.07;18.00;;;11.70;59.80;;;;;;5076572;28;20449;-62
2022/03/22 02:57:48;;;;;;;23.30;18.27;;;11.60;59.70;;;;;;5077213;28;20479;-62
2022/03/22 03:00:17;;;;;;;22.50;17.10;;;11.60;59.80;;;;;;5076706;28;20478;-62
2022/03/22 03:02:45;;;;;;;26.40;20.00;;;11.60;59.80;;;;;;5077071;28;20480;-62
2022/03/22 03:05:12;;;;;;;22.93;18.70;;;11.60;59.70;;;;;;5076779;28;20955;-62
2022/03/22 03:07:39;;;;;;;26.07;18.80;;;11.60;59.60;;;;;;5076333;28;20444;-63
2022/03/22 03:10:08;;;;;;;22.57;17.90;;;11.60;59.40;;;;;;5077586;28;20487;-62
2022/03/22 03:12:35;;;;;;;24.53;19.80;;;11.60;59.30;;;;;;5076298;28;20479;-62
2022/03/22 03:15:02;;;;;;;27.30;18.37;;;11.70;59.00;;;;;;5075458;28;20954;-62
2022/03/22 03:17:31;;;;;;;28.63;18.20;;;11.60;58.80;;;;;;5075900;28;20449;-62
2022/03/22 03:19:58;;;;;;;28.43;18.40;;;11.70;58.60;;;;;;5078771;28;20517;-63
2022/03/22 03:22:25;;;;;;;26.47;18.20;;;11.70;58.40;;;;;;5080068;28;20471;-62
2022/03/22 03:24:52;;;;;;;24.07;19.37;;;11.70;58.00;;;;;;5080075;28;20822;-61
2022/03/22 03:27:19;;;;;;;22.90;17.90;;;11.70;57.90;;;;;;5079817;28;20456;-62
2022/03/22 03:29:46;;;;;;;19.87;16.30;;;11.70;57.90;;;;;;5080656;28;21062;-62
2022/03/22 03:32:12;;;;;;;23.80;19.47;;;11.70;58.10;;;;;;5080795;28;20476;-62
2022/03/22 03:34:41;;;;;;;21.27;17.27;;;11.70;57.90;;;;;;5081218;28;20456;-62
2022/03/22 03:37:07;;;;;;;18.83;16.77;;;11.70;57.80;;;;;;5080340;28;20451;-62
2022/03/22 03:39:37;;;;;;;24.13;17.57;;;11.70;57.90;;;;;;5080107;28;20466;-62
2022/03/22 03:42:04;;;;;;;19.60;17.50;;;11.70;57.80;;;;;;5079676;28;20464;-62
2022/03/22 03:47:18;;;;;;;23.03;18.80;;;11.70;57.50;;;;;;5080713;28;20404;-61
2022/03/22 03:49:48;;;;;;;22.77;17.90;;;11.70;57.50;;;;;;5080658;28;20476;-62
2022/03/22 03:52:17;;;;;;;25.77;17.10;;;11.70;57.50;;;;;;5079843;28;20975;-62
2022/03/22 03:54:45;;;;;;;23.23;17.53;;;11.70;57.30;;;;;;5080656;28;20445;-63
2022/03/22 03:57:13;;;;;;;22.17;19.07;;;11.70;57.10;;;;;;5080068;28;20468;-62
2022/03/22 03:59:41;;;;;;;20.00;17.90;;;11.70;57.10;;;;;;5080144;28;20445;-62
2022/03/22 04:02:10;;;;;;;22.23;18.53;;;11.70;57.30;;;;;;5079656;28;20987;-62
2022/03/22 04:04:39;;;;;;;20.07;17.80;;;11.60;57.00;;;;;;5081196;28;20448;-62
2022/03/22 04:07:08;;;;;;;20.63;16.83;;;11.60;56.90;;;;;;5081048;28;20808;-62
2022/03/22 04:09:36;;;;;;;23.10;17.43;;;11.60;57.00;;;;;;5080615;28;20451;-62
2022/03/22 04:12:03;;;;;;;24.17;19.23;;;11.70;56.80;;;;;;5080550;28;20472;-63
2022/03/22 04:14:30;;;;;;;22.33;18.87;;;11.70;56.60;;;;;;5084296;28;20456;-62
2022/03/22 04:16:57;;;;;;;19.23;16.53;;;11.70;56.50;;;;;;5080800;28;20441;-62
2022/03/22 04:19:24;;;;;;;22.83;17.13;;;11.70;56.50;;;;;;5080391;28;20453;-62
2022/03/22 04:21:51;;;;;;;20.87;16.60;;;11.70;56.30;;;;;;5080560;28;20469;-62
2022/03/22 04:24:20;;;;;;;18.67;16.67;;;11.60;56.30;;;;;;5079987;28;20448;-62
2022/03/22 04:26:46;;;;;;;22.53;16.70;;;11.60;56.30;;;;;;5080209;28;20472;-62
2022/03/22 04:34:58;;;;;;;21.80;16.87;;;11.60;55.90;;;;;;5036847;28;20439;-62
2022/03/22 04:37:24;;;;;;;24.80;17.53;;;11.60;56.00;;;;;;5036129;28;20460;-62
2022/03/22 04:39:52;;;;;;;20.43;16.83;;;11.60;56.00;;;;;;5054541;28;20445;-62
2022/03/22 04:42:19;;;;;;;19.70;16.90;;;11.60;55.80;;;;;;5078771;28;20476;-62
2022/03/22 04:44:46;;;;;;;23.90;17.20;;;11.60;55.90;;;;;;5078995;28;20452;-62
2022/03/22 04:47:13;;;;;;;23.30;18.10;;;11.60;55.60;;;;;;5078805;28;20480;-62
2022/03/22 04:49:40;;;;;;;21.63;17.57;;;11.60;55.50;;;;;;5078353;28;20966;-62
2022/03/22 04:57:36;;;;;;;25.70;19.20;;;11.50;55.80;;;;;;5078137;28;20408;-62
2022/03/22 05:00:05;;;;;;;23.10;19.17;;;11.40;55.60;;;;;;5077067;28;20519;-62
2022/03/22 05:02:32;;;;;;;24.93;18.80;;;11.40;55.70;;;;;;5077806;28;20464;-62
2022/03/22 05:05:00;;;;;;;21.67;17.20;;;11.40;55.70;;;;;;5077755;28;20452;-62
2022/03/22 05:07:27;;;;;;;21.17;16.20;;;11.40;55.50;;;;;;5078855;28;20453;-62
2022/03/22 05:09:55;;;;;;;21.20;17.00;;;11.40;55.50;;;;;;5078355;28;20472;-62
2022/03/22 05:12:22;;;;;;;21.60;17.80;;;11.40;55.30;;;;;;5077701;28;20480;-62
2022/03/22 05:14:50;;;;;;;19.20;16.23;;;11.40;55.20;;;;;;5078134;28;20452;-62
2022/03/22 05:17:21;;;;;;;18.60;15.50;;;11.40;55.30;;;;;;5079072;28;20456;-62
2022/03/22 05:19:48;;;;;;;21.87;16.40;;;11.40;55.20;;;;;;5076878;28;20876;-62
2022/03/22 05:22:15;;;;;;;21.00;16.33;;;11.30;55.30;;;;;;5078015;28;20556;-62
2022/03/22 05:24:42;;;;;;;19.47;16.20;;;11.30;55.20;;;;;;5078189;28;20456;-62
2022/03/22 05:27:10;;;;;;;17.43;15.50;;;11.30;54.90;;;;;;5078346;28;20504;-62
2022/03/22 05:29:37;;;;;;;20.17;17.20;;;11.30;54.80;;;;;;5078152;28;20440;-62
2022/03/22 05:32:04;;;;;;;17.97;15.77;;;11.30;54.80;;;;;;5078236;28;20863;-62
2022/03/22 05:34:31;;;;;;;21.70;16.20;;;11.30;54.80;;;;;;5078104;28;20520;-62
2022/03/22 05:36:58;;;;;;;20.60;16.23;;;11.30;54.80;;;;;;5077265;28;20441;-62
2022/03/22 05:39:24;;;;;;;21.43;16.50;;;11.30;54.80;;;;;;5079202;28;20454;-62
2022/03/22 05:41:51;;;;;;;21.67;16.57;;;11.20;54.30;;;;;;5077925;28;20465;-63
2022/03/22 05:44:21;;;;;;;21.90;16.80;;;11.30;54.40;;;;;;5079153;28;20451;-61
2022/03/22 05:46:47;;;;;;;21.13;16.50;;;11.20;54.10;;;;;;5078416;28;20547;-62
2022/03/22 05:49:14;;;;;;;18.90;15.17;;;11.20;54.40;;;;;;5078343;28;20441;-61
2022/03/22 05:51:41;;;;;;;16.80;14.30;;;11.20;54.50;;;;;;5079031;28;20488;-63
2022/03/22 05:54:08;;;;;;;20.47;16.20;;;11.20;54.80;;;;;;5079841;28;20448;-63
2022/03/22 05:56:34;;;;;;;17.03;14.60;;;11.20;54.90;;;;;;5078236;28;20488;-63
2022/03/22 05:59:01;;;;;;;24.37;16.83;;;11.20;55.00;;;;;;5078232;28;20436;-63
2022/03/22 06:01:30;;;;;;;17.87;15.60;;;11.20;54.90;;;;;;5078929;28;20553;-63
2022/03/22 06:03:58;;;;;;;17.53;15.70;;;11.20;55.40;;;;;;5078877;28;20928;-62
2022/03/22 06:06:24;;;;;;;21.83;15.90;;;11.30;54.60;;;;;;5079029;28;20445;-62
2022/03/22 06:08:51;;;;;;;16.80;14.10;;;11.30;54.40;;;;;;5079988;28;20444;-62
2022/03/22 06:11:19;;;;;;;20.53;15.40;;;11.30;54.10;;;;;;5078615;28;20481;-62
2022/03/22 06:13:45;;;;;;;20.47;16.83;;;11.30;54.40;;;;;;5079068;28;20480;-63
2022/03/22 06:16:12;;;;;;;18.03;15.37;;;11.30;54.50;;;;;;5079196;28;20449;-62
2022/03/22 06:18:41;;;;;;;17.60;14.93;;;11.30;54.40;;;;;;5079466;28;20460;-62
2022/03/22 06:21:07;;;;;;;18.93;14.60;;;11.40;54.40;;;;;;5079461;28;20464;-62
2022/03/22 06:23:34;;;;;;;14.97;12.83;;;11.40;54.40;;;;;;5078854;28;20441;-62
2022/03/22 06:26:02;;;;;;;18.83;15.17;;;11.40;54.30;;;;;;5084255;28;20445;-62
2022/03/22 06:28:28;;;;;;;20.00;14.27;;;11.50;54.40;;;;;;5088150;28;21008;-63
2022/03/22 06:30:55;;;;;;;19.40;16.97;;;11.50;54.20;;;;;;5079681;28;20480;-63
2022/03/22 06:33:24;;;;;;;21.23;15.50;;;11.50;53.90;;;;;;5079125;28;20463;-62
2022/03/22 06:35:52;;;;;;;17.90;14.83;;;11.50;53.80;;;;;;5079049;28;20796;-63
2022/03/22 06:38:19;;;;;;;20.30;15.37;;;11.60;53.70;;;;;;5079252;28;20456;-62
2022/03/22 06:40:48;;;;;;;18.33;15.13;;;11.60;53.50;;;;;;5078700;28;20464;-63
2022/03/22 06:43:17;;;;;;;17.90;14.90;;;11.60;53.40;;;;;;5078454;28;20502;-62
2022/03/22 06:45:45;;;;;;;18.30;14.53;;;11.70;53.30;;;;;;5078245;28;20527;-63
2022/03/22 06:48:11;;;;;;;16.70;14.73;;;11.70;53.30;;;;;;5077256;28;20480;-63
2022/03/22 06:50:39;;;;;;;21.83;14.50;;;11.70;53.40;;;;;;5076575;28;20492;-63
2022/03/22 06:53:08;;;;;;;15.77;13.70;;;11.80;53.40;;;;;;5078772;28;20436;-62
2022/03/22 06:55:35;;;;;;;23.30;15.67;;;11.80;53.50;;;;;;5081129;28;20449;-62
2022/03/22 06:58:03;;;;;;;16.60;13.90;;;11.80;53.50;;;;;;5080705;28;20448;-63
2022/03/22 07:00:31;;;;;;;16.47;14.13;;;11.80;53.60;;;;;;5080902;28;20455;-63
2022/03/22 07:03:00;;;;;;;23.03;14.47;;;11.90;53.80;;;;;;5081913;28;20483;-63
2022/03/22 07:05:27;;;;;;;21.53;14.40;;;11.90;53.90;;;;;;5081564;28;20452;-63
2022/03/22 07:07:54;;;;;;;16.17;13.73;;;11.90;53.80;;;;;;5081743;28;20451;-63
2022/03/22 07:10:22;;;;;;;17.90;14.13;;;12.00;53.80;;;;;;5081387;28;20455;-63
2022/03/22 07:12:51;;;;;;;15.27;13.67;;;12.00;53.80;;;;;;5080553;28;20449;-63
2022/03/22 07:15:23;;;;;;;17.73;14.93;;;12.10;53.70;;;;;;5080738;28;20448;-63
2022/03/22 07:17:52;;;;;;;20.13;16.20;;;12.20;53.60;;;;;;5080384;28;20917;-63
2022/03/22 07:20:19;;;;;;;16.07;14.03;;;12.20;53.30;;;;;;5080546;28;20433;-63
2022/03/22 07:22:46;;;;;;;20.37;14.70;;;12.30;53.30;;;;;;5080607;28;20448;-63
2022/03/22 07:25:13;;;;;;;21.03;14.40;;;12.40;52.90;;;;;;5080651;28;20450;-63
2022/03/22 07:27:41;;;;;;;16.13;14.43;;;12.40;52.90;;;;;;5080464;28;20527;-63
2022/03/22 07:30:11;;;;;;;17.73;15.50;;;12.50;52.90;;;;;;5080360;28;20444;-62
2022/03/22 07:32:37;;;;;;;16.73;14.00;;;12.60;52.90;;;;;;5080172;28;20534;-63
2022/03/22 07:35:05;;;;;;;21.33;15.50;;;12.60;52.60;;;;;;5080565;28;20480;-63
2022/03/22 07:37:32;;;;;;;17.67;14.30;;;12.70;52.40;;;;;;5080479;28;20470;-63
2022/03/22 07:40:00;;;;;;;16.17;14.47;;;12.80;52.20;;;;;;5080641;28;20445;-63
2022/03/22 07:42:29;;;;;;;16.37;14.20;;;12.80;52.10;;;;;;5080886;28;20989;-63
2022/03/22 07:44:58;;;;;;;19.07;16.33;;;12.90;52.10;;;;;;5080729;28;20436;-63
2022/03/22 07:47:25;;;;;;;20.23;14.30;;;13.00;52.00;;;;;;5080444;28;20966;-63
2022/03/22 07:55:21;;;;;;;17.87;14.80;;;13.30;51.10;;;;;;5079805;28;20405;-63
2022/03/22 07:57:48;;;;;;;16.87;15.17;;;13.40;51.00;;;;;;5079898;28;20448;-63
2022/03/22 08:00:18;;;;;;;16.90;15.10;;;13.60;50.50;;;;;;5079897;28;20445;-63
2022/03/22 08:02:52;;;;;;;18.27;13.57;;;13.60;50.00;;;;;;5079492;28;20425;-63
2022/03/22 08:05:19;;;;;;;17.67;15.10;;;13.80;49.90;;;;;;5079171;28;20519;-63
2022/03/22 08:07:46;;;;;;;18.23;15.50;;;13.90;49.50;;;;;;5080998;28;20445;-63
2022/03/22 08:10:13;;;;;;;15.13;13.40;;;14.00;48.90;;;;;;5080364;28;20484;-62
2022/03/22 08:12:40;;;;;;;17.37;14.63;;;14.10;48.90;;;;;;5080628;28;20500;-64
2022/03/22 08:15:08;;;;;;;15.10;13.50;;;14.20;49.00;;;;;;5079418;28;20529;-64
2022/03/22 08:17:37;;;;;;;16.87;15.13;;;14.30;48.40;;;;;;5079562;28;20445;-64
2022/03/22 08:20:05;;;;;;;19.40;15.30;;;14.50;48.70;;;;;;5081087;28;20461;-63
2022/03/22 08:22:32;;;;;;;18.60;15.83;;;14.50;47.10;;;;;;5082830;28;20468;-64
2022/03/22 08:24:59;;;;;;;16.97;15.17;;;14.60;47.00;;;;;;5081965;28;20456;-64
2022/03/22 08:27:26;;;;;;;20.07;15.27;;;14.80;46.20;;;;;;5079572;28;20445;-63
2022/03/22 08:29:53;;;;;;;16.30;13.93;;;14.80;45.30;;;;;;5079408;28;20448;-63
2022/03/22 08:32:19;;;;;;;18.20;16.00;;;14.90;46.40;;;;;;5079703;28;20496;-64
2022/03/22 08:34:47;;;;;;;22.33;16.67;;;14.90;46.40;;;;;;5079761;28;20518;-64
2022/03/22 08:37:14;;;;;;;18.53;16.20;;;15.00;46.00;;;;;;5080265;28;20451;-63
2022/03/22 08:39:41;;;;;;;17.40;15.10;;;15.20;46.00;;;;;;5080096;28;20440;-63
2022/03/22 08:42:08;;;;;;;16.10;14.40;;;15.30;45.70;;;;;;5080237;28;20465;-64
2022/03/22 08:44:34;;;;;;;18.73;15.60;;;15.40;45.50;;;;;;5079745;28;20444;-64
2022/03/22 08:47:02;;;;;;;18.00;15.17;;;15.40;45.60;;;;;;5080690;28;20471;-64
2022/03/22 08:49:29;;;;;;;18.83;16.83;;;15.50;45.00;;;;;;5080556;28;20859;-64
2022/03/22 08:51:57;;;;;;;15.23;13.67;;;15.60;44.40;;;;;;5079433;28;20480;-64
2022/03/22 08:54:24;;;;;;;18.80;16.03;;;15.70;43.90;;;;;;5079605;28;20943;-64
2022/03/22 08:56:50;;;;;;;17.10;14.80;;;15.80;44.30;;;;;;5079636;28;20460;-64
2022/03/22 08:59:17;;;;;;;17.67;14.03;;;15.90;43.70;;;;;;5078541;28;20498;-63
2022/03/22 09:01:44;;;;;;;20.37;16.80;;;16.00;43.90;;;;;;5079162;28;20476;-64
2022/03/22 09:06:57;;;;;;;19.67;15.87;;;16.20;44.10;;;;;;5079824;28;20903;-64
2022/03/22 09:09:24;;;;;;;21.00;16.60;;;16.20;44.50;;;;;;5079176;28;20934;-63
2022/03/22 09:11:50;;;;;;;19.07;17.07;;;16.40;44.20;;;;;;5079221;28;20540;-64
2022/03/22 09:14:17;;;;;;;17.27;15.27;;;16.50;43.80;;;;;;5078828;28;20448;-64
2022/03/22 09:16:44;;;;;;;19.20;17.20;;;16.60;43.00;;;;;;5078934;28;20433;-64
2022/03/22 09:19:11;;;;;;;20.87;17.20;;;16.70;43.20;;;;;;5078671;28;20463;-64
2022/03/22 09:21:38;;;;;;;18.27;15.20;;;16.80;42.90;;;;;;5078405;28;20492;-64
2022/03/22 09:24:07;;;;;;;19.50;17.50;;;16.90;42.70;;;;;;5078537;28;20459;-64
2022/03/22 09:26:34;;;;;;;20.33;16.60;;;17.00;42.70;;;;;;5078232;28;20971;-64
2022/03/22 09:29:01;;;;;;;20.17;17.93;;;17.10;43.20;;;;;;5077806;28;20433;-64
2022/03/22 09:31:28;;;;;;;17.60;15.57;;;17.20;42.40;;;;;;5077621;28;20484;-64
2022/03/22 09:33:57;;;;;;;17.30;15.60;;;17.30;40.60;;;;;;5082587;28;20472;-63
2022/03/22 09:36:24;;;;;;;22.60;16.77;;;17.50;41.50;;;;;;5080738;28;20555;-64
2022/03/22 09:38:51;;;;;;;17.37;15.37;;;17.60;42.00;;;;;;5079515;28;20445;-64
2022/03/22 09:41:20;;;;;;;18.43;16.00;;;17.80;42.00;;;;;;5079190;28;20467;-65
2022/03/22 09:43:48;;;;;;;18.30;15.77;;;18.10;42.30;;;;;;5079637;28;20511;-65
2022/03/22 09:46:18;;;;;;;20.97;16.50;;;18.30;41.80;;;;;;5078323;28;20451;-64
2022/03/22 09:48:46;;;;;;;19.03;15.20;;;18.60;40.30;;;;;;5079530;28;20429;-64
2022/03/22 09:53:58;;;;;;;18.00;16.10;;;19.20;40.00;;;;;;5078026;28;20452;-64
2022/03/22 09:56:30;;;;;;;19.57;16.47;;;19.50;39.50;;;;;;5079209;28;20449;-64
2022/03/22 09:58:58;;;;;;;17.83;15.80;;;19.80;38.80;;;;;;5078870;28;20436;-64
2022/03/22 10:01:25;;;;;;;20.97;16.03;;;20.20;37.50;;;;;;5077998;28;20472;-64
2022/03/22 10:04:00;;;;;;;18.70;16.90;;;20.60;37.20;;;;;;5078099;28;20475;-63
2022/03/22 10:06:27;;;;;;;16.37;14.87;;;20.90;36.10;;;;;;5078453;28;20456;-63
2022/03/22 10:08:55;;;;;;;16.73;15.03;;;21.20;35.70;;;;;;5077689;28;20449;-64
2022/03/22 10:11:21;;;;;;;20.70;16.20;;;21.60;35.20;;;;;;5077673;28;20469;-64
2022/03/22 10:13:54;;;;;;;16.37;14.63;;;21.90;34.80;;;;;;5077317;28;20449;-63
2022/03/22 10:16:22;;;;;;;20.30;16.90;;;22.20;34.50;;;;;;5078571;28;20445;-63
2022/03/22 10:18:49;;;;;;;17.00;15.20;;;22.60;33.40;;;;;;5079645;28;20456;-63
2022/03/22 10:21:15;;;;;;;16.37;14.70;;;23.00;32.00;;;;;;5079017;28;20467;-64
2022/03/22 10:23:49;;;;;;;18.73;15.87;;;23.30;32.10;;;;;;5078450;28;20452;-64
2022/03/22 10:26:16;;;;;;;16.83;15.23;;;23.70;31.30;;;;;;5077334;28;20869;-63
2022/03/22 10:28:51;;;;;;;18.47;15.57;;;24.00;30.20;;;;;;5076767;28;20481;-63
2022/03/22 10:31:20;;;;;;;18.00;16.10;;;24.40;30.30;;;;;;5077150;28;20486;-64
2022/03/22 10:33:51;;;;;;;18.03;16.17;;;24.70;28.30;;;;;;5077752;28;20460;-64
2022/03/22 10:36:21;;;;;;;16.23;14.73;;;25.10;28.10;;;;;;5076972;28;20441;-64
2022/03/22 10:38:59;;;;;;;18.47;16.67;;;25.40;28.20;;;;;;5082927;28;20425;-64
2022/03/22 10:41:32;;;;;;;17.23;15.50;;;25.90;26.80;;;;;;5077844;28;20475;-63
2022/03/22 10:44:06;;;;;;;17.20;15.60;;;26.20;25.80;;;;;;5077521;28;20436;-64
2022/03/22 10:46:35;;;;;;;16.73;15.23;;;26.60;26.00;;;;;;5077194;28;20437;-63
2022/03/22 10:49:06;;;;;;;16.00;14.43;;;27.00;24.70;;;;;;5076765;28;20462;-63
2022/03/22 10:51:35;;;;;;;14.97;13.67;;;27.50;24.90;;;;;;5080093;28;20464;-64
2022/03/22 10:54:02;;;;;;;15.10;13.80;;;28.00;24.10;;;;;;5078224;28;20807;-64
2022/03/22 10:56:30;;;;;;;15.53;14.13;;;28.60;24.20;;;;;;5076981;28;20448;-64
2022/03/22 10:58:59;;;;;;;14.57;13.30;;;29.10;22.90;;;;;;5077661;28;20464;-64
2022/03/22 11:01:27;;;;;;;14.67;13.27;;;29.60;22.70;;;;;;5077854;28;20496;-64
2022/03/22 11:03:58;;;;;;;14.50;12.93;;;30.10;21.50;;;;;;5077003;28;20448;-64
2022/03/22 11:06:30;;;;;;;14.43;13.13;;;30.60;20.30;;;;;;5076469;28;20429;-64
2022/03/22 11:08:57;;;;;;;14.83;13.53;;;31.00;20.40;;;;;;5076283;28;20439;-64
2022/03/22 11:11:25;;;;;;;14.67;13.30;;;31.30;19.70;;;;;;5076463;28;20460;-63
2022/03/22 11:13:51;;;;;;;16.53;15.13;;;31.60;18.60;;;;;;5077416;28;20488;-64
2022/03/22 11:16:22;;;;;;;14.90;13.37;;;31.60;17.80;;;;;;5076832;28;20456;-64
2022/03/22 11:18:49;;;;;;;16.40;14.97;;;31.80;19.10;;;;;;5076189;28;20468;-65
2022/03/22 11:21:19;;;;;;;17.73;16.07;;;32.00;19.10;;;;;;5076109;28;20651;-64
2022/03/22 11:23:47;;;;;;;17.00;15.50;;;32.30;17.70;;;;;;5077112;28;20436;-69
2022/03/22 11:26:17;;;;;;;16.97;15.67;;;32.60;17.80;;;;;;5076733;28;20451;-63
2022/03/22 11:28:45;;;;;;;18.40;16.60;;;32.50;16.10;;;;;;5076479;28;20938;-64
2022/03/22 11:31:16;;;;;;;18.27;16.50;;;32.00;16.40;;;;;;5075950;28;20471;-64
2022/03/22 11:36:38;;;;;;;14.70;13.30;;;31.20;16.80;;;;;;5075678;28;20490;-64
2022/03/22 11:39:05;;;;;;;15.00;13.60;;;31.10;18.70;;;;;;5076348;28;20810;-63
2022/03/22 11:44:21;;;;;;;15.90;14.60;;;32.10;19.00;;;;;;5082900;28;20451;-63
2022/03/22 11:47:00;;;;;;;17.03;15.60;;;32.80;17.60;;;;;;5084306;28;20444;-64
2022/03/22 11:49:27;;;;;;;15.47;14.07;;;33.50;18.20;;;;;;5082925;28;20459;-64
2022/03/22 11:51:58;;;;;;;14.57;12.83;;;34.20;16.90;;;;;;5079674;28;20479;-63
2022/03/22 11:54:26;;;;;;;15.77;13.40;;;34.80;16.70;;;;;;5079461;28;20432;-63
2022/03/22 11:56:58;;;;;;;14.80;13.30;;;35.30;16.40;;;;;;5079398;28;20444;-63
2022/03/22 11:59:28;;;;;;;13.43;12.20;;;35.70;16.30;;;;;;5079559;28;20190;-64
2022/03/22 12:01:59;;;;;;;14.13;12.88;;;36.30;16.20;;;;;;5079959;28;20226;-64
2022/03/22 12:04:42;;;;;;;15.23;12.98;;;36.80;15.50;;;;;;5079366;28;20197;-65
2022/03/22 12:07:12;;;;;;;14.35;12.88;;;37.40;15.00;;;;;;5079710;28;20570;-64
2022/03/22 12:09:40;;;;;;;13.98;12.65;;;37.80;14.80;;;;;;5079444;28;20664;-63
2022/03/22 12:12:09;;;;;;;16.25;13.85;;;38.20;13.70;;;;;;5079560;28;20280;-63
2022/03/22 12:14:36;;;;;;;12.90;11.05;;;38.40;12.10;;;;;;5080477;28;20197;-63
2022/03/22 12:17:05;;;;;;;14.55;12.30;;;38.70;14.00;;;;;;5080244;28;20202;-64
2022/03/22 12:19:34;;;;;;;13.32;12.07;;;39.00;13.80;;;;;;5078836;28;20217;-64
2022/03/22 12:22:03;;;;;;;13.48;12.38;;;39.20;13.90;;;;;;5078982;28;20222;-64
2022/03/22 12:24:33;;;;;;;12.25;11.15;;;39.50;13.90;;;;;;5078543;28;20233;-65
2022/03/22 12:27:01;;;;;;;12.60;11.30;;;39.80;13.50;;;;;;5079169;28;20186;-65
2022/03/22 12:29:28;;;;;;;13.23;12.02;;;40.10;13.30;;;;;;5079776;28;20198;-65
2022/03/22 12:31:56;;;;;;;13.00;10.38;;;40.50;12.50;;;;;;5078842;28;20234;-64
2022/03/22 12:34:26;;;;;;;11.43;10.38;;;40.70;13.00;;;;;;5079015;28;20198;-64
2022/03/22 12:36:53;;;;;;;12.07;10.88;;;41.00;12.30;;;;;;5079040;28;20592;-64
2022/03/22 12:39:20;;;;;;;11.57;10.57;;;41.30;11.70;;;;;;5079232;28;20202;-64
2022/03/22 12:41:49;;;;;;;12.48;11.38;;;41.50;11.60;;;;;;5078744;28;20708;-64
2022/03/22 12:44:16;;;;;;;12.90;11.90;;;41.80;11.80;;;;;;5079094;28;20198;-64
2022/03/22 12:46:43;;;;;;;12.27;11.25;;;41.90;10.60;;;;;;5078551;28;20202;-64
2022/03/22 12:49:10;;;;;;;12.52;11.63;;;41.90;11.40;;;;;;5078210;28;20210;-64
2022/03/22 12:51:38;;;;;;;10.85;10.05;;;42.00;11.00;;;;;;5078594;28;20226;-64
2022/03/22 12:54:06;;;;;;;11.30;10.40;;;42.10;11.40;;;;;;5078322;28;20229;-64
2022/03/22 12:56:33;;;;;;;13.27;11.90;;;42.30;11.50;;;;;;5078749;28;20208;-64
2022/03/22 12:59:01;;;;;;;13.77;12.43;;;42.40;10.90;;;;;;5078429;28;20202;-64
2022/03/22 13:01:38;;;;;;;12.65;11.63;;;42.30;10.30;;;;;;5078834;28;20226;-63
2022/03/22 13:04:05;;;;;;;11.77;10.88;;;42.20;10.60;;;;;;5078276;28;20185;-64
2022/03/22 13:06:33;;;;;;;13.20;11.68;;;42.10;11.30;;;;;;5078527;28;20205;-63
2022/03/22 13:11:44;;;;;;;12.15;10.93;;;42.20;10.40;;;;;;5078955;28;20268;-64